sensor_id;sensor_type;location;lat;lon;timestamp;P1;durP1;ratioP1;P2;durP2;ratioP2
65377;SDS011;51982;51.042;13.806;2023-03-20T00:00:31;15.05;;;8.38;;
65377;SDS011;51982;51.042;13.806;2023-03-20T00:02:59;15.23;;;7.72;;
65377;SDS011;51982;51.042;13.806;2023-03-20T00:05:25;13.82;;;8.10;;
65377;SDS011;51982;51.042;13.806;2023-03-20T00:07:52;13.77;;;7.85;;
65377;SDS011;51982;51.042;13.806;2023-03-20T00:10:19;20.73;;;7.65;;
65377;SDS011;51982;51.042;13.806;2023-03-20T00:12:46;13.95;;;8.95;;
65377;SDS011;51982;51.042;13.806;2023-03-20T00:15:18;14.48;;;8.13;;
65377;SDS011;51982;51.042;13.806;2023-03-20T00:17:48;15.93;;;9.05;;
65377;SDS011;51982;51.042;13.806;2023-03-20T00:20:14;16.57;;;8.87;;
65377;SDS011;51982;51.042;13.806;2023-03-20T00:22:40;15.50;;;8.98;;
65377;SDS011;51982;51.042;13.806;2023-03-20T00:25:05;15.52;;;9.30;;
65377;SDS011;51982;51.042;13.806;2023-03-20T00:27:31;14.38;;;8.93;;
65377;SDS011;51982;51.042;13.806;2023-03-20T00:29:56;18.52;;;9.35;;
65377;SDS011;51982;51.042;13.806;2023-03-20T00:32:22;15.88;;;9.45;;
65377;SDS011;51982;51.042;13.806;2023-03-20T00:34:47;15.57;;;9.07;;
65377;SDS011;51982;51.042;13.806;2023-03-20T00:37:12;16.65;;;10.10;;
65377;SDS011;51982;51.042;13.806;2023-03-20T00:39:38;14.90;;;8.67;;
65377;SDS011;51982;51.042;13.806;2023-03-20T00:42:04;16.42;;;9.20;;
65377;SDS011;51982;51.042;13.806;2023-03-20T00:44:35;15.75;;;9.52;;
65377;SDS011;51982;51.042;13.806;2023-03-20T00:47:09;19.90;;;9.48;;
65377;SDS011;51982;51.042;13.806;2023-03-20T00:49:40;18.30;;;10.40;;
65377;SDS011;51982;51.042;13.806;2023-03-20T00:52:08;15.95;;;9.55;;
65377;SDS011;51982;51.042;13.806;2023-03-20T00:54:36;15.07;;;9.68;;
65377;SDS011;51982;51.042;13.806;2023-03-20T00:57:03;17.33;;;10.53;;
65377;SDS011;51982;51.042;13.806;2023-03-20T00:59:32;17.35;;;9.48;;
65377;SDS011;51982;51.042;13.806;2023-03-20T01:02:01;18.65;;;10.18;;
65377;SDS011;51982;51.042;13.806;2023-03-20T01:04:30;19.35;;;10.48;;
65377;SDS011;51982;51.042;13.806;2023-03-20T01:07:02;17.13;;;10.63;;
65377;SDS011;51982;51.042;13.806;2023-03-20T01:09:28;19.85;;;10.85;;
65377;SDS011;51982;51.042;13.806;2023-03-20T01:11:53;17.92;;;10.38;;
65377;SDS011;51982;51.042;13.806;2023-03-20T01:14:19;17.30;;;11.32;;
65377;SDS011;51982;51.042;13.806;2023-03-20T01:16:44;17.60;;;11.07;;
65377;SDS011;51982;51.042;13.806;2023-03-20T01:19:11;19.08;;;11.15;;
65377;SDS011;51982;51.042;13.806;2023-03-20T01:21:38;17.90;;;10.82;;
65377;SDS011;51982;51.042;13.806;2023-03-20T01:24:03;17.25;;;10.93;;
65377;SDS011;51982;51.042;13.806;2023-03-20T01:26:41;20.83;;;11.63;;
65377;SDS011;51982;51.042;13.806;2023-03-20T01:29:18;19.30;;;11.60;;
65377;SDS011;51982;51.042;13.806;2023-03-20T01:31:45;18.20;;;12.00;;
65377;SDS011;51982;51.042;13.806;2023-03-20T01:34:11;22.80;;;12.23;;
65377;SDS011;51982;51.042;13.806;2023-03-20T01:36:36;18.38;;;12.00;;
65377;SDS011;51982;51.042;13.806;2023-03-20T01:39:02;22.02;;;12.25;;
65377;SDS011;51982;51.042;13.806;2023-03-20T01:41:27;19.15;;;11.65;;
65377;SDS011;51982;51.042;13.806;2023-03-20T01:43:53;19.52;;;11.43;;
65377;SDS011;51982;51.042;13.806;2023-03-20T01:46:21;20.08;;;11.85;;
65377;SDS011;51982;51.042;13.806;2023-03-20T01:51:14;22.53;;;12.10;;
65377;SDS011;51982;51.042;13.806;2023-03-20T01:53:40;17.35;;;11.48;;
65377;SDS011;51982;51.042;13.806;2023-03-20T01:56:07;27.40;;;12.23;;
65377;SDS011;51982;51.042;13.806;2023-03-20T01:58:36;20.50;;;12.25;;
65377;SDS011;51982;51.042;13.806;2023-03-20T02:01:05;18.60;;;11.95;;
65377;SDS011;51982;51.042;13.806;2023-03-20T02:03:34;22.38;;;11.95;;
65377;SDS011;51982;51.042;13.806;2023-03-20T02:05:59;19.67;;;11.73;;
65377;SDS011;51982;51.042;13.806;2023-03-20T02:08:26;22.38;;;13.30;;
65377;SDS011;51982;51.042;13.806;2023-03-20T02:10:53;17.88;;;11.70;;
65377;SDS011;51982;51.042;13.806;2023-03-20T02:13:19;19.25;;;12.00;;
65377;SDS011;51982;51.042;13.806;2023-03-20T02:16:19;20.13;;;12.50;;
65377;SDS011;51982;51.042;13.806;2023-03-20T02:18:39;17.92;;;11.40;;
65377;SDS011;51982;51.042;13.806;2023-03-20T02:21:26;21.23;;;12.52;;
65377;SDS011;51982;51.042;13.806;2023-03-20T02:30:14;19.17;;;11.65;;
65377;SDS011;51982;51.042;13.806;2023-03-20T02:33:00;21.17;;;12.68;;
65377;SDS011;51982;51.042;13.806;2023-03-20T02:35:56;18.27;;;11.60;;
65377;SDS011;51982;51.042;13.806;2023-03-20T02:46:57;21.63;;;12.68;;
65377;SDS011;51982;51.042;13.806;2023-03-20T02:54:50;19.75;;;12.43;;
65377;SDS011;51982;51.042;13.806;2023-03-20T02:57:38;23.45;;;12.35;;
65377;SDS011;51982;51.042;13.806;2023-03-20T03:00:14;20.80;;;12.00;;
65377;SDS011;51982;51.042;13.806;2023-03-20T03:03:06;19.45;;;11.82;;
65377;SDS011;51982;51.042;13.806;2023-03-20T03:05:37;19.83;;;12.20;;
65377;SDS011;51982;51.042;13.806;2023-03-20T03:08:07;19.88;;;12.38;;
65377;SDS011;51982;51.042;13.806;2023-03-20T03:10:35;18.67;;;12.50;;
65377;SDS011;51982;51.042;13.806;2023-03-20T03:13:03;21.38;;;13.27;;
65377;SDS011;51982;51.042;13.806;2023-03-20T03:15:38;19.55;;;13.02;;
65377;SDS011;51982;51.042;13.806;2023-03-20T03:18:10;22.20;;;12.63;;
65377;SDS011;51982;51.042;13.806;2023-03-20T03:20:39;20.77;;;12.77;;
65377;SDS011;51982;51.042;13.806;2023-03-20T03:23:09;23.15;;;12.30;;
65377;SDS011;51982;51.042;13.806;2023-03-20T03:25:44;22.38;;;13.65;;
65377;SDS011;51982;51.042;13.806;2023-03-20T03:31:01;26.75;;;13.48;;
65377;SDS011;51982;51.042;13.806;2023-03-20T03:33:29;20.63;;;12.80;;
65377;SDS011;51982;51.042;13.806;2023-03-20T03:36:08;18.65;;;12.85;;
65377;SDS011;51982;51.042;13.806;2023-03-20T03:41:38;23.80;;;12.82;;
65377;SDS011;51982;51.042;13.806;2023-03-20T03:44:10;18.75;;;12.05;;
65377;SDS011;51982;51.042;13.806;2023-03-20T03:46:51;23.10;;;12.68;;
65377;SDS011;51982;51.042;13.806;2023-03-20T03:49:19;18.70;;;12.18;;
65377;SDS011;51982;51.042;13.806;2023-03-20T03:51:53;20.70;;;12.88;;
65377;SDS011;51982;51.042;13.806;2023-03-20T03:54:40;18.80;;;11.95;;
65377;SDS011;51982;51.042;13.806;2023-03-20T03:57:18;21.05;;;12.45;;
65377;SDS011;51982;51.042;13.806;2023-03-20T03:59:48;22.80;;;11.63;;
65377;SDS011;51982;51.042;13.806;2023-03-20T04:02:16;21.02;;;12.32;;
65377;SDS011;51982;51.042;13.806;2023-03-20T04:04:45;19.55;;;11.80;;
65377;SDS011;51982;51.042;13.806;2023-03-20T04:07:13;17.45;;;11.48;;
65377;SDS011;51982;51.042;13.806;2023-03-20T04:09:39;22.02;;;11.80;;
65377;SDS011;51982;51.042;13.806;2023-03-20T04:12:05;21.73;;;11.98;;
65377;SDS011;51982;51.042;13.806;2023-03-20T04:14:30;18.55;;;10.77;;
65377;SDS011;51982;51.042;13.806;2023-03-20T04:16:56;21.48;;;11.40;;
65377;SDS011;51982;51.042;13.806;2023-03-20T04:19:21;17.87;;;11.23;;
65377;SDS011;51982;51.042;13.806;2023-03-20T04:21:46;17.50;;;10.80;;
65377;SDS011;51982;51.042;13.806;2023-03-20T04:24:11;16.00;;;10.90;;
65377;SDS011;51982;51.042;13.806;2023-03-20T04:26:37;19.65;;;10.30;;
65377;SDS011;51982;51.042;13.806;2023-03-20T04:29:03;18.30;;;11.00;;
65377;SDS011;51982;51.042;13.806;2023-03-20T04:31:29;20.45;;;10.93;;
65377;SDS011;51982;51.042;13.806;2023-03-20T04:33:54;21.63;;;11.55;;
65377;SDS011;51982;51.042;13.806;2023-03-20T04:36:19;23.33;;;13.43;;
65377;SDS011;51982;51.042;13.806;2023-03-20T04:38:45;18.75;;;12.55;;
65377;SDS011;51982;51.042;13.806;2023-03-20T04:41:10;20.08;;;12.55;;
65377;SDS011;51982;51.042;13.806;2023-03-20T04:43:35;22.75;;;14.45;;
65377;SDS011;51982;51.042;13.806;2023-03-20T04:46:00;24.77;;;15.43;;
65377;SDS011;51982;51.042;13.806;2023-03-20T04:48:26;22.90;;;14.35;;
65377;SDS011;51982;51.042;13.806;2023-03-20T04:50:52;22.75;;;14.35;;
65377;SDS011;51982;51.042;13.806;2023-03-20T04:53:17;23.05;;;14.43;;
65377;SDS011;51982;51.042;13.806;2023-03-20T04:55:43;20.25;;;13.85;;
65377;SDS011;51982;51.042;13.806;2023-03-20T04:58:09;18.10;;;11.93;;
65377;SDS011;51982;51.042;13.806;2023-03-20T05:00:35;22.95;;;12.75;;
65377;SDS011;51982;51.042;13.806;2023-03-20T05:03:00;18.63;;;10.83;;
65377;SDS011;51982;51.042;13.806;2023-03-20T05:05:25;18.27;;;10.93;;
65377;SDS011;51982;51.042;13.806;2023-03-20T05:07:51;16.83;;;10.95;;
65377;SDS011;51982;51.042;13.806;2023-03-20T05:10:16;22.25;;;11.82;;
65377;SDS011;51982;51.042;13.806;2023-03-20T05:12:42;16.55;;;10.18;;
65377;SDS011;51982;51.042;13.806;2023-03-20T05:15:07;16.25;;;10.15;;
65377;SDS011;51982;51.042;13.806;2023-03-20T05:17:33;19.08;;;11.07;;
65377;SDS011;51982;51.042;13.806;2023-03-20T05:19:58;17.75;;;11.20;;
65377;SDS011;51982;51.042;13.806;2023-03-20T05:22:23;18.17;;;10.32;;
65377;SDS011;51982;51.042;13.806;2023-03-20T05:24:49;18.70;;;10.35;;
65377;SDS011;51982;51.042;13.806;2023-03-20T05:27:14;18.58;;;11.10;;
65377;SDS011;51982;51.042;13.806;2023-03-20T05:29:40;17.40;;;10.23;;
65377;SDS011;51982;51.042;13.806;2023-03-20T05:32:05;20.45;;;11.00;;
65377;SDS011;51982;51.042;13.806;2023-03-20T05:34:30;19.52;;;12.15;;
65377;SDS011;51982;51.042;13.806;2023-03-20T05:36:55;16.33;;;10.77;;
65377;SDS011;51982;51.042;13.806;2023-03-20T05:39:21;17.98;;;11.10;;
65377;SDS011;51982;51.042;13.806;2023-03-20T05:41:46;21.40;;;10.50;;
65377;SDS011;51982;51.042;13.806;2023-03-20T05:44:11;18.23;;;10.90;;
65377;SDS011;51982;51.042;13.806;2023-03-20T05:46:36;14.93;;;10.10;;
65377;SDS011;51982;51.042;13.806;2023-03-20T05:49:02;17.13;;;9.52;;
65377;SDS011;51982;51.042;13.806;2023-03-20T05:51:27;17.58;;;9.68;;
65377;SDS011;51982;51.042;13.806;2023-03-20T05:53:52;16.20;;;9.37;;
65377;SDS011;51982;51.042;13.806;2023-03-20T05:56:17;12.93;;;8.20;;
65377;SDS011;51982;51.042;13.806;2023-03-20T05:58:43;16.38;;;9.10;;
65377;SDS011;51982;51.042;13.806;2023-03-20T06:01:08;16.93;;;9.40;;
65377;SDS011;51982;51.042;13.806;2023-03-20T06:03:33;17.13;;;9.23;;
65377;SDS011;51982;51.042;13.806;2023-03-20T06:05:58;18.13;;;9.07;;
65377;SDS011;51982;51.042;13.806;2023-03-20T06:08:24;17.60;;;8.98;;
65377;SDS011;51982;51.042;13.806;2023-03-20T06:10:50;15.98;;;8.85;;
65377;SDS011;51982;51.042;13.806;2023-03-20T06:13:16;15.00;;;8.82;;
65377;SDS011;51982;51.042;13.806;2023-03-20T06:15:42;15.00;;;7.63;;
65377;SDS011;51982;51.042;13.806;2023-03-20T06:18:07;11.93;;;7.20;;
65377;SDS011;51982;51.042;13.806;2023-03-20T06:20:32;15.50;;;6.83;;
65377;SDS011;51982;51.042;13.806;2023-03-20T06:22:58;12.27;;;7.30;;
65377;SDS011;51982;51.042;13.806;2023-03-20T06:25:23;10.05;;;5.55;;
65377;SDS011;51982;51.042;13.806;2023-03-20T06:27:48;8.98;;;5.68;;
65377;SDS011;51982;51.042;13.806;2023-03-20T06:30:14;8.85;;;5.10;;
65377;SDS011;51982;51.042;13.806;2023-03-20T06:32:40;15.25;;;5.43;;
65377;SDS011;51982;51.042;13.806;2023-03-20T06:35:05;8.70;;;4.38;;
65377;SDS011;51982;51.042;13.806;2023-03-20T06:37:31;6.60;;;4.35;;
65377;SDS011;51982;51.042;13.806;2023-03-20T06:39:57;7.38;;;4.00;;
65377;SDS011;51982;51.042;13.806;2023-03-20T06:42:22;6.30;;;4.00;;
65377;SDS011;51982;51.042;13.806;2023-03-20T06:44:48;8.05;;;3.20;;
65377;SDS011;51982;51.042;13.806;2023-03-20T06:47:13;5.80;;;3.17;;
65377;SDS011;51982;51.042;13.806;2023-03-20T06:49:38;4.03;;;2.90;;
65377;SDS011;51982;51.042;13.806;2023-03-20T06:52:04;5.05;;;2.92;;
65377;SDS011;51982;51.042;13.806;2023-03-20T06:54:30;4.20;;;2.70;;
65377;SDS011;51982;51.042;13.806;2023-03-20T06:56:55;4.97;;;2.50;;
65377;SDS011;51982;51.042;13.806;2023-03-20T06:59:20;7.47;;;2.60;;
65377;SDS011;51982;51.042;13.806;2023-03-20T07:01:46;6.25;;;2.30;;
65377;SDS011;51982;51.042;13.806;2023-03-20T07:04:11;3.67;;;2.27;;
65377;SDS011;51982;51.042;13.806;2023-03-20T07:06:36;5.37;;;2.90;;
65377;SDS011;51982;51.042;13.806;2023-03-20T07:09:02;6.28;;;2.80;;
65377;SDS011;51982;51.042;13.806;2023-03-20T07:11:28;4.97;;;2.90;;
65377;SDS011;51982;51.042;13.806;2023-03-20T07:13:54;4.00;;;2.90;;
65377;SDS011;51982;51.042;13.806;2023-03-20T07:16:19;5.35;;;3.17;;
65377;SDS011;51982;51.042;13.806;2023-03-20T07:18:45;5.05;;;2.58;;
65377;SDS011;51982;51.042;13.806;2023-03-20T07:21:12;4.75;;;2.38;;
65377;SDS011;51982;51.042;13.806;2023-03-20T07:23:42;3.92;;;2.40;;
65377;SDS011;51982;51.042;13.806;2023-03-20T07:26:07;3.20;;;1.77;;
65377;SDS011;51982;51.042;13.806;2023-03-20T07:28:32;8.30;;;2.30;;
65377;SDS011;51982;51.042;13.806;2023-03-20T07:30:58;3.60;;;2.10;;
65377;SDS011;51982;51.042;13.806;2023-03-20T07:33:23;5.97;;;2.20;;
65377;SDS011;51982;51.042;13.806;2023-03-20T07:35:52;8.15;;;2.63;;
65377;SDS011;51982;51.042;13.806;2023-03-20T07:38:17;3.13;;;2.10;;
65377;SDS011;51982;51.042;13.806;2023-03-20T07:40:43;4.20;;;2.55;;
65377;SDS011;51982;51.042;13.806;2023-03-20T07:43:08;3.97;;;2.10;;
65377;SDS011;51982;51.042;13.806;2023-03-20T07:45:33;5.13;;;2.20;;
65377;SDS011;51982;51.042;13.806;2023-03-20T07:47:58;2.50;;;2.03;;
65377;SDS011;51982;51.042;13.806;2023-03-20T07:50:24;4.25;;;2.60;;
65377;SDS011;51982;51.042;13.806;2023-03-20T07:52:49;6.70;;;2.40;;
65377;SDS011;51982;51.042;13.806;2023-03-20T07:55:18;3.35;;;2.45;;
65377;SDS011;51982;51.042;13.806;2023-03-20T07:57:43;4.53;;;2.50;;
65377;SDS011;51982;51.042;13.806;2023-03-20T08:00:08;6.68;;;2.67;;
65377;SDS011;51982;51.042;13.806;2023-03-20T08:02:35;3.78;;;2.40;;
65377;SDS011;51982;51.042;13.806;2023-03-20T08:05:00;20.23;;;2.85;;
65377;SDS011;51982;51.042;13.806;2023-03-20T08:07:25;5.47;;;2.72;;
65377;SDS011;51982;51.042;13.806;2023-03-20T08:09:53;4.47;;;2.85;;
65377;SDS011;51982;51.042;13.806;2023-03-20T08:12:18;5.88;;;3.00;;
65377;SDS011;51982;51.042;13.806;2023-03-20T08:14:44;4.80;;;2.97;;
65377;SDS011;51982;51.042;13.806;2023-03-20T08:17:09;6.13;;;2.92;;
65377;SDS011;51982;51.042;13.806;2023-03-20T08:19:34;4.68;;;3.25;;
65377;SDS011;51982;51.042;13.806;2023-03-20T08:22:02;5.47;;;3.20;;
65377;SDS011;51982;51.042;13.806;2023-03-20T08:24:28;5.50;;;3.17;;
65377;SDS011;51982;51.042;13.806;2023-03-20T08:26:54;7.82;;;3.30;;
65377;SDS011;51982;51.042;13.806;2023-03-20T08:29:19;5.45;;;3.28;;
65377;SDS011;51982;51.042;13.806;2023-03-20T08:31:45;5.80;;;3.20;;
65377;SDS011;51982;51.042;13.806;2023-03-20T08:34:10;7.45;;;3.28;;
65377;SDS011;51982;51.042;13.806;2023-03-20T08:36:35;4.97;;;3.15;;
65377;SDS011;51982;51.042;13.806;2023-03-20T08:39:01;4.18;;;3.00;;
65377;SDS011;51982;51.042;13.806;2023-03-20T08:41:26;8.63;;;3.35;;
65377;SDS011;51982;51.042;13.806;2023-03-20T08:43:51;7.20;;;3.30;;
65377;SDS011;51982;51.042;13.806;2023-03-20T08:46:17;4.23;;;3.10;;
65377;SDS011;51982;51.042;13.806;2023-03-20T08:48:42;6.32;;;2.95;;
65377;SDS011;51982;51.042;13.806;2023-03-20T08:51:07;4.50;;;2.83;;
65377;SDS011;51982;51.042;13.806;2023-03-20T08:53:33;5.85;;;3.15;;
65377;SDS011;51982;51.042;13.806;2023-03-20T08:55:58;5.85;;;3.40;;
65377;SDS011;51982;51.042;13.806;2023-03-20T08:58:23;6.57;;;3.75;;
65377;SDS011;51982;51.042;13.806;2023-03-20T09:00:48;7.20;;;4.22;;
65377;SDS011;51982;51.042;13.806;2023-03-20T09:03:14;12.07;;;4.70;;
65377;SDS011;51982;51.042;13.806;2023-03-20T09:05:42;6.70;;;3.95;;
65377;SDS011;51982;51.042;13.806;2023-03-20T09:08:08;6.88;;;4.20;;
65377;SDS011;51982;51.042;13.806;2023-03-20T09:10:34;6.03;;;4.50;;
65377;SDS011;51982;51.042;13.806;2023-03-20T09:12:59;8.15;;;4.72;;
65377;SDS011;51982;51.042;13.806;2023-03-20T09:15:25;12.63;;;5.22;;
65377;SDS011;51982;51.042;13.806;2023-03-20T09:17:50;9.82;;;5.60;;
65377;SDS011;51982;51.042;13.806;2023-03-20T09:20:16;9.75;;;6.05;;
65377;SDS011;51982;51.042;13.806;2023-03-20T09:22:41;9.20;;;6.20;;
65377;SDS011;51982;51.042;13.806;2023-03-20T09:25:07;11.43;;;6.57;;
65377;SDS011;51982;51.042;13.806;2023-03-20T09:27:33;10.63;;;6.50;;
65377;SDS011;51982;51.042;13.806;2023-03-20T09:29:58;12.48;;;6.65;;
65377;SDS011;51982;51.042;13.806;2023-03-20T09:32:24;15.17;;;8.00;;
65377;SDS011;51982;51.042;13.806;2023-03-20T09:34:50;13.90;;;7.97;;
65377;SDS011;51982;51.042;13.806;2023-03-20T09:37:15;13.27;;;7.88;;
65377;SDS011;51982;51.042;13.806;2023-03-20T09:39:40;15.70;;;8.05;;
65377;SDS011;51982;51.042;13.806;2023-03-20T09:42:19;16.03;;;8.47;;
65377;SDS011;51982;51.042;13.806;2023-03-20T09:45:11;14.68;;;7.78;;
65377;SDS011;51982;51.042;13.806;2023-03-20T09:47:57;13.48;;;7.43;;
65377;SDS011;51982;51.042;13.806;2023-03-20T09:53:00;17.23;;;8.52;;
65377;SDS011;51982;51.042;13.806;2023-03-20T09:55:35;16.00;;;9.40;;
65377;SDS011;51982;51.042;13.806;2023-03-20T09:58:03;15.88;;;8.52;;
65377;SDS011;51982;51.042;13.806;2023-03-20T10:00:34;15.50;;;9.18;;
65377;SDS011;51982;51.042;13.806;2023-03-20T10:03:01;16.30;;;8.77;;
65377;SDS011;51982;51.042;13.806;2023-03-20T10:05:37;17.90;;;9.25;;
65377;SDS011;51982;51.042;13.806;2023-03-20T10:08:09;16.80;;;9.98;;
65377;SDS011;51982;51.042;13.806;2023-03-20T10:10:51;16.70;;;9.57;;
65377;SDS011;51982;51.042;13.806;2023-03-20T10:13:37;14.32;;;8.52;;
65377;SDS011;51982;51.042;13.806;2023-03-20T10:16:12;17.48;;;10.23;;
65377;SDS011;51982;51.042;13.806;2023-03-20T10:18:46;23.00;;;11.95;;
65377;SDS011;51982;51.042;13.806;2023-03-20T10:21:44;20.83;;;11.68;;
65377;SDS011;51982;51.042;13.806;2023-03-20T10:27:04;22.15;;;12.10;;
65377;SDS011;51982;51.042;13.806;2023-03-20T10:29:48;20.85;;;11.35;;
65377;SDS011;51982;51.042;13.806;2023-03-20T10:32:25;18.98;;;10.35;;
65377;SDS011;51982;51.042;13.806;2023-03-20T10:35:10;18.95;;;10.18;;
65377;SDS011;51982;51.042;13.806;2023-03-20T10:42:52;23.95;;;10.95;;
65377;SDS011;51982;51.042;13.806;2023-03-20T10:48:01;18.60;;;10.38;;
65377;SDS011;51982;51.042;13.806;2023-03-20T10:50:38;11.68;;;6.80;;
65377;SDS011;51982;51.042;13.806;2023-03-20T10:55:36;16.23;;;8.18;;
65377;SDS011;51982;51.042;13.806;2023-03-20T10:58:09;17.85;;;10.48;;
65377;SDS011;51982;51.042;13.806;2023-03-20T11:00:40;16.70;;;10.07;;
65377;SDS011;51982;51.042;13.806;2023-03-20T11:03:05;18.45;;;9.38;;
65377;SDS011;51982;51.042;13.806;2023-03-20T11:05:37;16.40;;;9.60;;
65377;SDS011;51982;51.042;13.806;2023-03-20T11:08:07;20.52;;;11.27;;
65377;SDS011;51982;51.042;13.806;2023-03-20T11:10:36;19.92;;;11.68;;
65377;SDS011;51982;51.042;13.806;2023-03-20T11:13:03;18.42;;;10.55;;
65377;SDS011;51982;51.042;13.806;2023-03-20T11:15:41;19.55;;;10.55;;
65377;SDS011;51982;51.042;13.806;2023-03-20T11:18:08;16.83;;;9.30;;
65377;SDS011;51982;51.042;13.806;2023-03-20T11:20:59;15.73;;;9.90;;
65377;SDS011;51982;51.042;13.806;2023-03-20T11:23:26;12.88;;;7.95;;
65377;SDS011;51982;51.042;13.806;2023-03-20T11:26:11;14.95;;;8.75;;
65377;SDS011;51982;51.042;13.806;2023-03-20T11:28:41;15.13;;;8.38;;
65377;SDS011;51982;51.042;13.806;2023-03-20T11:33:38;15.00;;;7.15;;
65377;SDS011;51982;51.042;13.806;2023-03-20T11:38:47;13.35;;;8.38;;
65377;SDS011;51982;51.042;13.806;2023-03-20T11:41:18;15.23;;;9.40;;
65377;SDS011;51982;51.042;13.806;2023-03-20T11:43:47;16.13;;;9.50;;
65377;SDS011;51982;51.042;13.806;2023-03-20T11:46:13;14.25;;;7.82;;
65377;SDS011;51982;51.042;13.806;2023-03-20T11:48:42;13.98;;;8.63;;
65377;SDS011;51982;51.042;13.806;2023-03-20T11:51:13;14.65;;;8.45;;
65377;SDS011;51982;51.042;13.806;2023-03-20T11:56:14;14.13;;;9.17;;
65377;SDS011;51982;51.042;13.806;2023-03-20T11:58:49;14.23;;;8.38;;
65377;SDS011;51982;51.042;13.806;2023-03-20T12:01:19;17.63;;;9.75;;
65377;SDS011;51982;51.042;13.806;2023-03-20T12:06:25;16.48;;;9.50;;
65377;SDS011;51982;51.042;13.806;2023-03-20T12:09:02;14.52;;;8.55;;
65377;SDS011;51982;51.042;13.806;2023-03-20T12:14:07;14.45;;;8.57;;
65377;SDS011;51982;51.042;13.806;2023-03-20T12:16:41;12.25;;;7.43;;
65377;SDS011;51982;51.042;13.806;2023-03-20T12:19:10;13.90;;;8.85;;
65377;SDS011;51982;51.042;13.806;2023-03-20T12:21:43;15.70;;;8.60;;
65377;SDS011;51982;51.042;13.806;2023-03-20T12:30:03;17.27;;;8.53;;
65377;SDS011;51982;51.042;13.806;2023-03-20T12:37:53;17.98;;;9.82;;
65377;SDS011;51982;51.042;13.806;2023-03-20T12:40:19;17.00;;;10.43;;
65377;SDS011;51982;51.042;13.806;2023-03-20T12:45:32;17.90;;;10.27;;
65377;SDS011;51982;51.042;13.806;2023-03-20T12:51:24;15.23;;;9.50;;
65377;SDS011;51982;51.042;13.806;2023-03-20T12:57:04;20.50;;;9.88;;
65377;SDS011;51982;51.042;13.806;2023-03-20T13:05:31;21.48;;;10.85;;
65377;SDS011;51982;51.042;13.806;2023-03-20T13:10:47;17.63;;;9.80;;
65377;SDS011;51982;51.042;13.806;2023-03-20T13:13:42;18.30;;;9.60;;
65377;SDS011;51982;51.042;13.806;2023-03-20T13:16:17;17.77;;;9.85;;
65377;SDS011;51982;51.042;13.806;2023-03-20T13:18:59;17.85;;;10.15;;
65377;SDS011;51982;51.042;13.806;2023-03-20T13:21:31;16.20;;;9.20;;
65377;SDS011;51982;51.042;13.806;2023-03-20T13:27:00;18.33;;;10.00;;
65377;SDS011;51982;51.042;13.806;2023-03-20T13:32:40;19.35;;;9.65;;
65377;SDS011;51982;51.042;13.806;2023-03-20T13:35:27;21.80;;;11.13;;
65377;SDS011;51982;51.042;13.806;2023-03-20T13:38:07;22.80;;;11.43;;
65377;SDS011;51982;51.042;13.806;2023-03-20T13:40:39;19.63;;;11.13;;
65377;SDS011;51982;51.042;13.806;2023-03-20T13:45:55;20.30;;;10.55;;
65377;SDS011;51982;51.042;13.806;2023-03-20T13:48:36;22.30;;;11.02;;
65377;SDS011;51982;51.042;13.806;2023-03-20T13:56:28;22.17;;;11.27;;
65377;SDS011;51982;51.042;13.806;2023-03-20T14:04:31;16.95;;;10.02;;
65377;SDS011;51982;51.042;13.806;2023-03-20T14:06:58;23.20;;;11.80;;
65377;SDS011;51982;51.042;13.806;2023-03-20T14:11:52;22.40;;;12.48;;
65377;SDS011;51982;51.042;13.806;2023-03-20T14:14:29;21.42;;;12.98;;
65377;SDS011;51982;51.042;13.806;2023-03-20T14:17:20;21.75;;;13.02;;
65377;SDS011;51982;51.042;13.806;2023-03-20T14:19:51;21.65;;;12.32;;
65377;SDS011;51982;51.042;13.806;2023-03-20T14:22:19;20.92;;;12.80;;
65377;SDS011;51982;51.042;13.806;2023-03-20T14:25:28;23.65;;;11.90;;
65377;SDS011;51982;51.042;13.806;2023-03-20T14:27:57;24.55;;;11.65;;
65377;SDS011;51982;51.042;13.806;2023-03-20T14:30:43;21.60;;;12.45;;
65377;SDS011;51982;51.042;13.806;2023-03-20T14:35:48;26.00;;;12.73;;
65377;SDS011;51982;51.042;13.806;2023-03-20T14:38:30;23.13;;;12.70;;
65377;SDS011;51982;51.042;13.806;2023-03-20T14:41:25;21.33;;;12.75;;
65377;SDS011;51982;51.042;13.806;2023-03-20T14:51:59;26.20;;;14.63;;
65377;SDS011;51982;51.042;13.806;2023-03-20T14:54:54;28.52;;;13.48;;
65377;SDS011;51982;51.042;13.806;2023-03-20T14:57:28;27.92;;;14.98;;
65377;SDS011;51982;51.042;13.806;2023-03-20T14:59:56;27.20;;;14.80;;
65377;SDS011;51982;51.042;13.806;2023-03-20T15:02:26;24.23;;;13.93;;
65377;SDS011;51982;51.042;13.806;2023-03-20T15:04:52;31.80;;;16.33;;
65377;SDS011;51982;51.042;13.806;2023-03-20T15:09:45;31.97;;;16.10;;
65377;SDS011;51982;51.042;13.806;2023-03-20T15:12:14;30.83;;;17.05;;
65377;SDS011;51982;51.042;13.806;2023-03-20T15:14:55;27.48;;;15.77;;
65377;SDS011;51982;51.042;13.806;2023-03-20T15:17:35;31.63;;;15.85;;
65377;SDS011;51982;51.042;13.806;2023-03-20T15:20:15;31.40;;;16.88;;
65377;SDS011;51982;51.042;13.806;2023-03-20T15:22:47;29.20;;;16.17;;
65377;SDS011;51982;51.042;13.806;2023-03-20T15:25:17;35.28;;;17.65;;
65377;SDS011;51982;51.042;13.806;2023-03-20T15:27:43;36.35;;;17.30;;
65377;SDS011;51982;51.042;13.806;2023-03-20T15:30:11;42.97;;;21.02;;
65377;SDS011;51982;51.042;13.806;2023-03-20T15:32:39;40.10;;;18.75;;
65377;SDS011;51982;51.042;13.806;2023-03-20T15:35:08;45.40;;;22.73;;
65377;SDS011;51982;51.042;13.806;2023-03-20T15:37:41;44.53;;;21.40;;
65377;SDS011;51982;51.042;13.806;2023-03-20T15:40:12;44.30;;;21.20;;
65377;SDS011;51982;51.042;13.806;2023-03-20T15:43:14;45.40;;;21.03;;
65377;SDS011;51982;51.042;13.806;2023-03-20T15:45:40;45.20;;;19.95;;
65377;SDS011;51982;51.042;13.806;2023-03-20T15:48:07;39.47;;;20.50;;
65377;SDS011;51982;51.042;13.806;2023-03-20T15:50:37;38.85;;;19.40;;
65377;SDS011;51982;51.042;13.806;2023-03-20T15:53:03;37.95;;;18.60;;
65377;SDS011;51982;51.042;13.806;2023-03-20T15:55:30;39.58;;;19.48;;
65377;SDS011;51982;51.042;13.806;2023-03-20T15:57:56;43.30;;;20.13;;
65377;SDS011;51982;51.042;13.806;2023-03-20T16:00:33;45.92;;;19.92;;
65377;SDS011;51982;51.042;13.806;2023-03-20T16:03:04;40.30;;;19.38;;
65377;SDS011;51982;51.042;13.806;2023-03-20T16:05:31;46.08;;;20.67;;
65377;SDS011;51982;51.042;13.806;2023-03-20T16:07:57;45.88;;;20.55;;
65377;SDS011;51982;51.042;13.806;2023-03-20T16:10:42;38.45;;;18.73;;
65377;SDS011;51982;51.042;13.806;2023-03-20T16:13:10;43.15;;;19.77;;
65377;SDS011;51982;51.042;13.806;2023-03-20T16:15:37;40.60;;;19.35;;
65377;SDS011;51982;51.042;13.806;2023-03-20T16:18:04;40.53;;;19.27;;
65377;SDS011;51982;51.042;13.806;2023-03-20T16:20:35;40.85;;;19.27;;
65377;SDS011;51982;51.042;13.806;2023-03-20T16:23:06;37.83;;;17.70;;
65377;SDS011;51982;51.042;13.806;2023-03-20T16:25:33;33.20;;;17.20;;
65377;SDS011;51982;51.042;13.806;2023-03-20T16:27:59;33.33;;;16.85;;
65377;SDS011;51982;51.042;13.806;2023-03-20T16:30:26;35.03;;;16.27;;
65377;SDS011;51982;51.042;13.806;2023-03-20T16:32:59;32.72;;;17.13;;